Long Island City, New York
Current Conditions -  °F | °C
As of 12:51 PM on Friday 24 Oct 2014 (Local Time) from KNYC Reporting Station
Overcast Overcast  
Wind Chill: 58°   Ceiling: 3600
Heat Index: 58°   Visibility: 10mi
Dew Point: 42°   Wind: 7mph
Humidity: 56%   Direction: 300°WNW
Pressure: 29.81"   Gusts: NA
Location:  40.74°N, 73.95°W
Report Text: KNYC 241651Z AUTO 30006KT 10SM OVC036 14/06 A2981 RMK AO2 SLP086 T01440056 $
Loading
Personal Weather Stations






























Interactive Weather Map
Tropical Storm Tracking
New forecast layout! Learn more

10-Day Weather Forecast

Advertisements
Track Severe Weather on mobile